Time;durP1;ratioP1;P1;durP2;ratioP2;P2;SDS_P1;SDS_P2;PMS_P1;PMS_P2;Temp;Humidity;BMP_temperature;BMP_pressure;BME280_temperature;BME280_humidity;BME280_pressure;Samples;Min_cycle;Max_cycle;Signal;HPM_P1;HPM_P2
2022/09/20 00:01:38;;;;;;;;;2.50;2.50;;;;;21.67;49.56;100461.90;110410;1264;13160;-60
2022/09/20 00:04:05;;;;;;;;;2.00;2.00;;;;;21.67;49.64;100464.50;110438;1263;12832;-61
2022/09/20 00:06:33;;;;;;;;;2.00;2.00;;;;;21.67;49.43;100470.55;110416;1264;13951;-61
2022/09/20 00:09:01;;;;;;;;;1.00;1.00;;;;;21.67;49.63;100472.19;110432;1264;13183;-60
2022/09/20 00:11:29;;;;;;;;;1.00;1.00;;;;;21.66;49.77;100469.15;110499;1265;12978;-61
2022/09/20 00:13:56;;;;;;;;;2.00;2.00;;;;;21.66;49.80;100466.21;110432;1264;12874;-60
2022/09/20 00:16:24;;;;;;;;;3.00;3.00;;;;;21.66;49.73;100468.77;110401;1262;13241;-62
2022/09/20 00:18:51;;;;;;;;;3.00;2.00;;;;;21.66;49.56;100470.63;110403;1263;12929;-59
2022/09/20 00:21:18;;;;;;;;;3.00;3.00;;;;;21.65;49.77;100474.14;110441;1263;13135;-62
2022/09/20 00:23:46;;;;;;;;;2.00;2.00;;;;;21.65;49.60;100476.86;110443;1264;13898;-61
2022/09/20 00:26:14;;;;;;;;;4.33;3.67;;;;;21.65;49.68;100475.77;110464;1264;13123;-61
2022/09/20 00:28:42;;;;;;;;;2.00;2.00;;;;;21.64;49.80;100475.28;110487;1262;13432;-61
2022/09/20 00:31:09;;;;;;;;;2.33;2.33;;;;;21.65;49.47;100478.32;110397;1264;12837;-59
2022/09/20 00:36:22;;;;;;;;;2.00;2.00;;;;;21.64;49.58;100481.13;110245;1262;13406;-61
2022/09/20 00:38:49;;;;;;;;;2.00;2.00;;;;;21.64;49.73;100481.70;110306;1262;13068;-61
2022/09/20 00:41:16;;;;;;;;;3.00;3.00;;;;;21.65;49.65;100482.77;110485;1264;12934;-61
2022/09/20 00:43:44;;;;;;;;;2.00;2.00;;;;;21.64;49.77;100485.15;110391;1262;12556;-63
2022/09/20 00:46:11;;;;;;;;;2.00;2.00;;;;;21.63;50.04;100484.25;110399;1264;13057;-60
2022/09/20 00:48:38;;;;;;;;;1.67;1.67;;;;;21.63;49.72;100486.63;110411;1264;12946;-59
2022/09/20 00:51:06;;;;;;;;;3.00;2.00;;;;;21.63;50.07;100484.08;110408;1264;13142;-60
2022/09/20 00:53:33;;;;;;;;;2.00;2.00;;;;;21.62;49.73;100484.73;110447;1264;13166;-60
2022/09/20 00:56:01;;;;;;;;;3.00;2.00;;;;;21.63;49.82;100487.73;110336;1264;15183;-58
2022/09/20 00:58:28;;;;;;;;;2.00;2.00;;;;;21.62;49.73;100489.95;110407;1263;13164;-60
2022/09/20 01:00:55;;;;;;;;;2.00;2.00;;;;;21.63;49.41;100491.71;110380;1264;12996;-62
2022/09/20 01:03:24;;;;;;;;;2.00;2.00;;;;;21.62;49.73;100490.48;110402;1263;12947;-60
2022/09/20 01:05:51;;;;;;;;;3.00;2.33;;;;;21.60;49.80;100489.98;110390;1264;12824;-58
2022/09/20 01:08:18;;;;;;;;;2.00;2.00;;;;;21.60;49.36;100490.30;110430;1264;12561;-60
2022/09/20 01:10:45;;;;;;;;;2.00;2.00;;;;;21.61;49.77;100490.02;110418;1264;13170;-60
2022/09/20 01:13:13;;;;;;;;;2.00;2.00;;;;;21.60;49.65;100490.73;110447;1262;13154;-62
2022/09/20 01:15:40;;;;;;;;;2.00;2.00;;;;;21.61;49.42;100487.64;110380;1264;14887;-59
2022/09/20 01:18:08;;;;;;;;;1.67;1.67;;;;;21.60;49.49;100485.56;110416;1264;15109;-59
2022/09/20 01:20:35;;;;;;;;;2.00;2.00;;;;;21.61;49.63;100487.30;110348;1265;14041;-61
2022/09/20 01:23:02;;;;;;;;;3.00;2.67;;;;;21.61;49.70;100484.98;110360;1263;14324;-60
2022/09/20 01:25:30;;;;;;;;;1.33;1.33;;;;;21.61;49.92;100481.92;110418;1264;14036;-62
2022/09/20 01:27:57;;;;;;;;;2.67;2.00;;;;;21.62;49.50;100485.45;110406;1264;14743;-59
2022/09/20 01:30:24;;;;;;;;;2.00;2.00;;;;;21.61;49.48;100484.45;110423;1264;14317;-60
2022/09/20 01:32:51;;;;;;;;;2.00;2.00;;;;;21.60;49.72;100483.64;110416;1264;13234;-61
2022/09/20 01:35:19;;;;;;;;;2.00;2.00;;;;;21.60;49.73;100482.20;110428;1264;13215;-62
2022/09/20 01:37:47;;;;;;;;;2.00;2.00;;;;;21.59;49.68;100480.44;110398;1264;17562;-62
2022/09/20 01:40:14;;;;;;;;;2.00;2.00;;;;;21.60;49.28;100479.95;110398;1264;13202;-61
2022/09/20 01:42:41;;;;;;;;;2.00;2.00;;;;;21.60;49.42;100485.61;110374;1263;14839;-57
2022/09/20 01:45:08;;;;;;;;;2.00;2.00;;;;;21.61;49.43;100477.89;110384;1262;14333;-61
2022/09/20 01:47:36;;;;;;;;;3.00;3.00;;;;;21.59;49.76;100481.02;110406;1264;14667;-62
2022/09/20 01:50:03;;;;;;;;;2.00;2.00;;;;;21.59;49.53;100478.27;110412;1264;14728;-62
2022/09/20 01:52:30;;;;;;;;;2.00;1.00;;;;;21.60;49.42;100480.40;110419;1264;13626;-61
2022/09/20 01:54:57;;;;;;;;;1.00;1.00;;;;;21.59;49.45;100481.36;110382;1264;15085;-58
2022/09/20 01:57:25;;;;;;;;;3.00;2.00;;;;;21.60;49.62;100480.95;110397;1262;13899;-63
2022/09/20 01:59:52;;;;;;;;;2.00;2.00;;;;;21.59;49.58;100481.56;110416;1264;13072;-60
2022/09/20 02:02:19;;;;;;;;;2.00;2.00;;;;;21.59;49.45;100483.79;110435;1265;12417;-61
2022/09/20 02:04:46;;;;;;;;;2.00;2.00;;;;;21.58;49.46;100484.58;110414;1262;14525;-62
2022/09/20 02:07:14;;;;;;;;;1.00;1.00;;;;;21.58;49.39;100484.38;110403;1265;14434;-61
2022/09/20 02:09:41;;;;;;;;;2.00;2.00;;;;;21.58;49.48;100479.15;110416;1264;13847;-62
2022/09/20 02:12:09;;;;;;;;;2.00;2.00;;;;;21.56;49.59;100484.41;110387;1264;15337;-61
2022/09/20 02:14:36;;;;;;;;;2.00;2.00;;;;;21.57;49.69;100487.64;110432;1264;13376;-60
2022/09/20 02:17:03;;;;;;;;;1.00;1.00;;;;;21.57;49.46;100487.45;110353;1264;14643;-60
2022/09/20 02:19:30;;;;;;;;;2.33;2.00;;;;;21.56;49.53;100484.41;110413;1264;13985;-61
2022/09/20 02:21:58;;;;;;;;;2.67;2.00;;;;;21.56;49.42;100486.71;110388;1264;15387;-62
2022/09/20 02:24:26;;;;;;;;;1.00;1.00;;;;;21.56;49.54;100489.48;110416;1263;15257;-61
2022/09/20 02:26:53;;;;;;;;;1.50;1.50;;;;;21.57;49.58;100492.94;110429;1264;14449;-60
2022/09/20 02:29:20;;;;;;;;;2.00;2.00;;;;;21.57;49.69;100496.20;110466;1265;12012;-60
2022/09/20 02:31:48;;;;;;;;;1.00;1.00;;;;;21.57;49.56;100499.20;110419;1263;14399;-60
2022/09/20 02:34:15;;;;;;;;;2.00;2.00;;;;;21.57;49.55;100500.52;110426;1264;13033;-60
2022/09/20 02:36:42;;;;;;;;;2.00;2.00;;;;;21.56;49.59;100502.41;110419;1265;13267;-60
2022/09/20 02:39:09;;;;;;;;;2.67;2.00;;;;;21.57;49.49;100514.04;110408;1264;13948;-61
2022/09/20 02:41:37;;;;;;;;;2.00;2.00;;;;;21.57;49.45;100521.05;110496;1265;13174;-60
2022/09/20 02:44:04;;;;;;;;;2.00;2.00;;;;;21.57;49.47;100522.85;110418;1263;14498;-60
2022/09/20 02:46:31;;;;;;;;;2.00;2.00;;;;;21.56;49.39;100514.48;110377;1264;13851;-59
2022/09/20 02:48:58;;;;;;;;;1.00;1.00;;;;;21.55;49.48;100520.73;110340;1264;14206;-58
2022/09/20 02:51:26;;;;;;;;;1.50;1.00;;;;;21.56;49.48;100522.67;110383;1264;14447;-61
2022/09/20 02:53:53;;;;;;;;;2.33;2.00;;;;;21.56;49.36;100529.73;110391;1264;13898;-61
2022/09/20 02:56:20;;;;;;;;;2.00;2.00;;;;;21.56;49.43;100526.45;110445;1264;13073;-61
2022/09/20 02:58:47;;;;;;;;;2.00;2.00;;;;;21.56;49.56;100531.19;110416;1264;14311;-62
2022/09/20 03:01:15;;;;;;;;;2.00;2.00;;;;;21.56;49.38;100527.20;110384;1264;15014;-60
2022/09/20 03:03:42;;;;;;;;;2.00;2.00;;;;;21.55;49.47;100530.77;110413;1265;13545;-60
2022/09/20 03:06:09;;;;;;;;;2.00;2.00;;;;;21.56;49.41;100537.06;110425;1263;14011;-62
2022/09/20 03:08:36;;;;;;;;;2.00;2.00;;;;;21.55;49.37;100536.02;110462;1264;12347;-62
2022/09/20 03:11:04;;;;;;;;;1.00;1.00;;;;;21.55;49.34;100533.70;110410;1263;12810;-60
2022/09/20 03:13:31;;;;;;;;;2.00;1.00;;;;;21.54;49.30;100530.88;110397;1264;14223;-60
2022/09/20 03:15:58;;;;;;;;;2.67;2.00;;;;;21.54;49.27;100532.02;110385;1264;12679;-61
2022/09/20 03:18:25;;;;;;;;;2.00;1.00;;;;;21.54;49.23;100533.27;110396;1264;13129;-60
2022/09/20 03:20:53;;;;;;;;;2.00;2.00;;;;;21.54;49.30;100536.23;110355;1264;13199;-59
2022/09/20 03:23:20;;;;;;;;;1.33;1.33;;;;;21.53;49.26;100534.35;110452;1264;12663;-60
2022/09/20 03:25:48;;;;;;;;;2.00;2.00;;;;;21.52;49.44;100536.92;110419;1264;12890;-62
2022/09/20 03:28:15;;;;;;;;;2.00;2.00;;;;;21.53;49.29;100538.30;110392;1263;13135;-61
2022/09/20 03:30:42;;;;;;;;;2.00;2.00;;;;;21.53;49.33;100540.31;110427;1264;13039;-62
2022/09/20 03:33:09;;;;;;;;;3.00;2.00;;;;;21.52;49.24;100535.16;110408;1264;13037;-60
2022/09/20 03:35:37;;;;;;;;;2.00;2.00;;;;;21.52;49.20;100539.33;110400;1264;12839;-61
2022/09/20 03:38:04;;;;;;;;;2.00;2.00;;;;;21.53;49.31;100536.73;110419;1263;12689;-59
2022/09/20 03:40:32;;;;;;;;;1.00;1.00;;;;;21.52;49.16;100533.86;110361;1264;18225;-60
2022/09/20 03:43:00;;;;;;;;;2.00;2.00;;;;;21.52;49.24;100535.55;110395;1263;13632;-61
2022/09/20 03:45:27;;;;;;;;;2.67;2.00;;;;;21.52;49.17;100540.27;110421;1263;18173;-61
2022/09/20 03:47:55;;;;;;;;;2.00;2.00;;;;;21.52;49.11;100540.64;110431;1262;13046;-60
2022/09/20 03:50:22;;;;;;;;;2.00;2.00;;;;;21.52;49.09;100538.85;110246;1264;12438;-61
2022/09/20 03:52:49;;;;;;;;;2.00;2.00;;;;;21.52;49.22;100536.45;110266;1263;13124;-61
2022/09/20 03:55:17;;;;;;;;;2.00;2.00;;;;;21.51;49.22;100541.40;110336;1264;13046;-63
2022/09/20 03:57:44;;;;;;;;;1.00;1.00;;;;;21.51;49.12;100540.02;110391;1262;13048;-61
2022/09/20 04:00:11;;;;;;;;;1.67;1.67;;;;;21.52;48.99;100539.70;110426;1264;13170;-61
2022/09/20 04:02:38;;;;;;;;;2.00;2.00;;;;;21.52;49.21;100543.63;110453;1264;12928;-60
2022/09/20 04:05:06;;;;;;;;;1.67;1.67;;;;;21.52;49.23;100545.65;110385;1264;13021;-59
2022/09/20 04:07:33;;;;;;;;;1.33;1.33;;;;;21.52;49.13;100546.27;110344;1262;13213;-59
2022/09/20 04:10:00;;;;;;;;;2.00;2.00;;;;;21.52;49.11;100545.72;110376;1262;14023;-61
2022/09/20 04:12:27;;;;;;;;;2.00;2.00;;;;;21.51;49.06;100545.77;110366;1264;13917;-60
2022/09/20 04:14:54;;;;;;;;;2.00;2.00;;;;;21.52;49.02;100552.76;110407;1263;13049;-60
2022/09/20 04:17:23;;;;;;;;;1.33;1.33;;;;;21.51;48.84;100549.65;110437;1264;12677;-59
2022/09/20 04:19:50;;;;;;;;;2.00;2.00;;;;;21.51;48.99;100551.84;110386;1263;12792;-63
2022/09/20 04:22:18;;;;;;;;;2.00;2.00;;;;;21.51;48.97;100550.02;110418;1264;13005;-60
2022/09/20 04:24:45;;;;;;;;;2.67;2.00;;;;;21.51;48.92;100558.17;110427;1262;13504;-58
2022/09/20 04:27:13;;;;;;;;;2.00;2.00;;;;;21.50;48.81;100559.34;110398;1264;17903;-59
2022/09/20 04:29:40;;;;;;;;;3.00;2.67;;;;;21.50;48.95;100562.19;110435;1264;12698;-62
2022/09/20 04:32:07;;;;;;;;;1.33;1.33;;;;;21.49;48.78;100564.36;110395;1264;13567;-62
2022/09/20 04:37:16;;;;;;;;;2.00;2.00;;;;;21.49;48.86;100564.81;110398;1264;13687;-61
2022/09/20 04:39:43;;;;;;;;;2.00;2.00;;;;;21.48;48.86;100567.25;110421;1264;14260;-61
2022/09/20 04:42:10;;;;;;;;;2.00;2.00;;;;;21.48;48.85;100566.74;110414;1264;13843;-61
2022/09/20 04:44:38;;;;;;;;;1.00;1.00;;;;;21.48;48.72;100568.23;110435;1264;13115;-61
2022/09/20 04:47:05;;;;;;;;;2.00;2.00;;;;;21.47;48.71;100569.55;110443;1262;13612;-63
2022/09/20 04:49:33;;;;;;;;;2.00;2.00;;;;;21.48;48.74;100577.14;110397;1262;13610;-61
2022/09/20 04:52:02;;;;;;;;;1.00;1.00;;;;;21.47;48.81;100580.89;110412;1265;13074;-59
2022/09/20 04:54:30;;;;;;;;;2.00;2.00;;;;;21.48;49.09;100578.70;110424;1264;13111;-61
2022/09/20 04:56:57;;;;;;;;;1.00;1.00;;;;;21.53;49.43;100581.76;110426;1264;15544;-61
2022/09/20 04:59:24;;;;;;;;;2.00;1.00;;;;;21.54;49.56;100582.90;110470;1264;12900;-59
2022/09/20 05:01:54;;;;;;;;;2.00;2.00;;;;;21.49;49.61;100582.95;110396;1264;13309;-61
2022/09/20 05:04:22;;;;;;;;;5.00;5.00;;;;;21.42;49.90;100584.58;110408;1264;12641;-61
2022/09/20 05:06:49;;;;;;;;;3.00;3.00;;;;;21.35;49.46;100591.39;110468;1264;13486;-61
2022/09/20 05:09:16;;;;;;;;;3.00;3.00;;;;;21.30;49.44;100598.70;110461;1262;14485;-60
2022/09/20 05:11:45;;;;;;;;;2.00;2.00;;;;;21.26;49.19;100604.21;110443;1265;13073;-61
2022/09/20 05:14:12;;;;;;;;;3.00;3.00;;;;;21.21;49.16;100609.24;110427;1264;12893;-60
2022/09/20 05:16:40;;;;;;;;;3.00;3.00;;;;;21.19;48.90;100608.91;110397;1264;13135;-63
2022/09/20 05:19:08;;;;;;;;;4.00;3.00;;;;;21.21;48.79;100606.16;110387;1263;12594;-59
2022/09/20 05:21:35;;;;;;;;;3.00;3.00;;;;;21.24;48.74;100613.70;110386;1264;13506;-61
2022/09/20 05:24:03;;;;;;;;;3.00;3.00;;;;;21.29;48.74;100615.37;110445;1263;13177;-60
2022/09/20 05:26:30;;;;;;;;;3.00;3.00;;;;;21.33;48.71;100617.75;110492;1264;13390;-63
2022/09/20 05:28:57;;;;;;;;;2.33;2.00;;;;;21.39;48.53;100624.17;110351;1264;12290;-58
2022/09/20 05:31:25;;;;;;;;;5.00;3.00;;;;;21.42;48.48;100625.08;110431;1263;13269;-60
2022/09/20 05:33:52;;;;;;;;;3.00;3.00;;;;;21.45;48.69;100629.64;110437;1265;12907;-60
2022/09/20 05:36:19;;;;;;;;;2.33;2.33;;;;;21.48;48.61;100629.58;110449;1264;12780;-61
2022/09/20 05:38:47;;;;;;;;;2.00;2.00;;;;;21.48;48.80;100623.76;110483;1265;12919;-61
2022/09/20 05:41:14;;;;;;;;;3.00;3.00;;;;;21.52;48.99;100632.40;110448;1264;13123;-60
2022/09/20 05:43:41;;;;;;;;;3.00;2.00;;;;;21.58;49.59;100627.65;110444;1264;12833;-61
2022/09/20 05:46:09;;;;;;;;;2.00;2.00;;;;;21.67;50.09;100627.02;110444;1264;13071;-63
2022/09/20 05:48:36;;;;;;;;;2.00;2.00;;;;;21.69;50.45;100630.70;110456;1265;12790;-61
2022/09/20 05:51:03;;;;;;;;;2.67;2.67;;;;;21.66;50.49;100632.19;110400;1264;13059;-62
2022/09/20 05:53:30;;;;;;;;;2.00;2.00;;;;;21.66;50.67;100634.98;110444;1264;12877;-60
2022/09/20 05:55:58;;;;;;;;;3.00;3.00;;;;;21.63;51.24;100635.23;110420;1264;12181;-62
2022/09/20 05:58:25;;;;;;;;;2.00;2.00;;;;;21.64;51.45;100636.85;110449;1264;12926;-61
2022/09/20 06:00:52;;;;;;;;;2.67;2.67;;;;;21.62;51.58;100641.09;110451;1264;13139;-62
2022/09/20 06:03:19;;;;;;;;;3.00;3.00;;;;;21.60;51.57;100644.30;110440;1264;12413;-61
2022/09/20 06:05:47;;;;;;;;;2.00;2.00;;;;;21.65;51.51;100646.38;110512;1264;13052;-63
2022/09/20 06:08:14;;;;;;;;;2.67;1.67;;;;;21.66;51.38;100644.77;110339;1264;13162;-61
2022/09/20 06:10:41;;;;;;;;;2.67;2.67;;;;;21.66;51.51;100646.82;110418;1262;12423;-60
2022/09/20 06:13:10;;;;;;;;;2.00;2.00;;;;;21.63;51.71;100645.46;110409;1265;12699;-63
2022/09/20 06:15:37;;;;;;;;;2.00;2.00;;;;;21.62;51.76;100648.64;110384;1262;12710;-62
2022/09/20 06:18:05;;;;;;;;;3.00;3.00;;;;;21.63;51.83;100651.09;110374;1262;12892;-62
2022/09/20 06:20:32;;;;;;;;;3.00;2.00;;;;;21.64;51.89;100655.86;110445;1264;12398;-61
2022/09/20 06:23:00;;;;;;;;;2.00;1.33;;;;;21.64;52.01;100656.30;110447;1264;13055;-60
2022/09/20 06:25:30;;;;;;;;;2.00;2.00;;;;;21.65;52.64;100653.60;110449;1264;13195;-63
2022/09/20 06:27:57;;;;;;;;;2.00;2.00;;;;;21.69;52.95;100662.80;110481;1264;13204;-61
2022/09/20 06:30:24;;;;;;;;;2.00;2.00;;;;;21.69;52.99;100666.55;110360;1264;13164;-62
2022/09/20 06:32:51;;;;;;;;;2.00;2.00;;;;;21.67;52.85;100664.42;110430;1264;12253;-62
2022/09/20 06:35:19;;;;;;;;;2.00;2.00;;;;;21.66;52.90;100673.52;110457;1265;12716;-62
2022/09/20 06:43:18;;;;;;;;;3.00;3.00;;;;;21.54;52.20;100682.33;110398;1264;13246;-63
2022/09/20 06:45:46;;;;;;;;;3.00;3.00;;;;;21.53;51.66;100687.20;110468;1264;12842;-61
2022/09/20 06:48:14;;;;;;;;;5.00;5.00;;;;;21.53;51.65;100687.02;110444;1265;13442;-63
2022/09/20 06:50:44;;;;;;;;;4.33;4.33;;;;;21.55;51.58;100685.91;110453;1264;13066;-62
2022/09/20 06:53:12;;;;;;;;;3.00;3.00;;;;;21.55;51.56;100693.64;110464;1264;13102;-60
2022/09/20 06:55:41;;;;;;;;;3.00;3.00;;;;;21.57;51.44;100692.90;110466;1262;13229;-59
2022/09/20 06:58:08;;;;;;;;;3.00;3.00;;;;;21.56;51.64;100694.79;110438;1262;13056;-61
2022/09/20 07:00:35;;;;;;;;;3.67;3.00;;;;;21.56;51.59;100697.68;110473;1263;14734;-60
2022/09/20 07:03:03;;;;;;;;;5.00;5.00;;;;;21.56;51.51;100695.78;110456;1264;14190;-61
2022/09/20 07:05:30;;;;;;;;;68.50;51.50;;;;;21.57;51.36;100700.68;110313;1262;12819;-62
2022/09/20 07:07:57;;;;;;;;;127.00;96.00;;;;;21.51;50.90;100698.10;110416;1264;15283;-63
2022/09/20 07:10:26;;;;;;;;;125.50;91.00;;;;;21.45;50.56;100701.94;110363;1264;15020;-62
2022/09/20 07:12:55;;;;;;;;;96.00;68.67;;;;;21.39;50.54;100705.26;110382;1264;14542;-61
2022/09/20 07:15:23;;;;;;;;;80.67;60.67;;;;;21.41;50.53;100709.58;110434;1265;14982;-61
2022/09/20 07:17:51;;;;;;;;;60.00;47.00;;;;;21.41;50.52;100707.40;110515;1264;12020;-62
2022/09/20 07:20:19;;;;;;;;;55.33;39.33;;;;;21.44;50.36;100715.13;110462;1264;10895;-59
2022/09/20 07:22:46;;;;;;;;;30.00;27.00;;;;;21.50;50.10;100715.02;110343;1264;15245;-61
2022/09/20 07:25:14;;;;;;;;;26.00;23.00;;;;;21.53;49.91;100718.52;110368;1264;14367;-59
2022/09/20 07:27:41;;;;;;;;;26.50;21.50;;;;;21.55;49.79;100719.19;110399;1264;14606;-62
2022/09/20 07:30:08;;;;;;;;;23.33;15.67;;;;;21.60;49.40;100727.46;110386;1264;14996;-61
2022/09/20 07:32:36;;;;;;;;;14.67;14.00;;;;;21.57;49.23;100728.93;110464;1264;13153;-62
2022/09/20 07:35:03;;;;;;;;;18.50;14.00;;;;;21.49;49.20;100729.14;110204;1264;165818;-59
2022/09/20 07:37:30;;;;;;;;;9.00;9.00;;;;;21.43;49.25;100732.56;110321;1264;13177;-60
2022/09/20 07:39:58;;;;;;;;;11.00;10.33;;;;;21.42;49.20;100738.51;110176;1264;13361;-60
2022/09/20 07:42:25;;;;;;;;;12.00;10.33;;;;;21.49;49.11;100734.17;110185;1264;14463;-60
2022/09/20 07:44:54;;;;;;;;;11.33;8.33;;;;;21.63;49.05;100736.61;110353;1264;14991;-60
2022/09/20 07:47:24;;;;;;;;;7.00;7.00;;;;;21.74;49.05;100735.63;110275;1265;12671;-59
2022/09/20 07:49:51;;;;;;;;;9.33;7.00;;;;;21.82;49.08;100737.54;110308;1264;14148;-58
2022/09/20 07:52:19;;;;;;;;;9.00;7.00;;;;;21.81;48.92;100739.79;110361;1264;14997;-59
2022/09/20 07:54:47;;;;;;;;;7.67;7.67;;;;;21.75;48.84;100740.05;110330;1264;15119;-62
2022/09/20 07:57:14;;;;;;;;;9.00;9.00;;;;;21.69;48.72;100741.89;110365;1264;15011;-59
2022/09/20 07:59:41;;;;;;;;;10.00;10.00;;;;;21.68;48.74;100743.79;110311;1264;13481;-60
2022/09/20 08:02:09;;;;;;;;;7.00;7.00;;;;;21.67;48.76;100745.00;110328;1265;14204;-60
2022/09/20 08:04:36;;;;;;;;;10.33;10.00;;;;;21.65;48.79;100741.46;110314;1264;14331;-61
2022/09/20 08:07:03;;;;;;;;;7.00;7.00;;;;;21.66;48.64;100742.29;110239;1264;14174;-58
2022/09/20 08:09:31;;;;;;;;;9.00;7.00;;;;;21.73;48.86;100738.71;110343;1264;14045;-62
2022/09/20 08:11:58;;;;;;;;;9.00;7.00;;;;;21.90;48.84;100741.56;110365;1263;15494;-60
2022/09/20 08:14:25;;;;;;;;;9.00;7.00;;;;;21.92;48.81;100745.25;110466;1264;13209;-61
2022/09/20 08:16:55;;;;;;;;;7.67;7.00;;;;;21.86;48.77;100742.86;110361;1264;15429;-61
2022/09/20 08:19:22;;;;;;;;;6.67;6.00;;;;;21.83;48.82;100746.36;110351;1264;13402;-61
2022/09/20 08:21:49;;;;;;;;;7.67;7.00;;;;;21.81;48.96;100745.73;110431;1264;14055;-61
2022/09/20 08:24:17;;;;;;;;;6.67;6.00;;;;;21.78;49.18;100744.36;110419;1264;13524;-60
2022/09/20 08:26:45;;;;;;;;;8.33;7.00;;;;;21.79;49.27;100741.89;110469;1264;12927;-62
2022/09/20 08:29:13;;;;;;;;;7.00;6.67;;;;;21.80;49.24;100743.21;110420;1265;13064;-61
2022/09/20 08:31:41;;;;;;;;;7.00;7.00;;;;;21.78;49.27;100744.02;110374;1264;14961;-62
2022/09/20 08:34:08;;;;;;;;;8.33;7.00;;;;;21.67;49.21;100744.86;110388;1264;13559;-61
2022/09/20 08:36:35;;;;;;;;;9.33;8.33;;;;;21.47;49.62;100751.14;110287;1264;13615;-61
2022/09/20 08:39:03;;;;;;;;;6.33;6.33;;;;;21.34;50.06;100751.42;110300;1264;13438;-60
2022/09/20 08:41:30;;;;;;;;;7.00;7.00;;;;;21.25;50.32;100754.16;110397;1264;13280;-59
2022/09/20 08:43:57;;;;;;;;;6.33;6.00;;;;;21.23;50.61;100754.89;110403;1264;13792;-61
2022/09/20 08:46:26;;;;;;;;;8.67;6.33;;;;;21.19;50.84;100753.61;110411;1264;13672;-57
2022/09/20 08:48:53;;;;;;;;;8.50;8.00;;;;;21.30;50.68;100756.42;110295;1265;14449;-59
2022/09/20 08:51:20;;;;;;;;;7.50;7.00;;;;;21.39;50.57;100751.77;110347;1265;13527;-62
2022/09/20 08:53:47;;;;;;;;;7.00;6.33;;;;;21.41;50.61;100758.58;110448;1264;13144;-61
2022/09/20 08:56:15;;;;;;;;;7.67;6.00;;;;;21.59;50.61;100755.63;110365;1264;15079;-59
2022/09/20 08:58:42;;;;;;;;;5.67;5.67;;;;;21.76;50.36;100753.51;110328;1265;13039;-61
2022/09/20 09:01:10;;;;;;;;;5.00;5.00;;;;;21.86;50.26;100751.83;110324;1265;13419;-61
2022/09/20 09:03:37;;;;;;;;;5.00;5.00;;;;;21.90;50.30;100751.02;110318;1264;13265;-61
2022/09/20 09:06:04;;;;;;;;;6.00;6.00;;;;;21.96;50.22;100752.96;110406;1264;13506;-61
2022/09/20 09:08:31;;;;;;;;;5.67;5.00;;;;;22.01;50.10;100754.14;110386;1264;12757;-63
2022/09/20 09:10:59;;;;;;;;;6.00;6.00;;;;;21.95;49.88;100754.20;110424;1264;13798;-61
2022/09/20 09:13:26;;;;;;;;;5.00;5.00;;;;;21.82;49.86;100751.17;110312;1265;13573;-59
2022/09/20 09:15:53;;;;;;;;;3.67;3.67;;;;;21.76;49.96;100752.27;110370;1264;13065;-59
2022/09/20 09:18:20;;;;;;;;;3.67;3.67;;;;;21.77;49.99;100746.55;110442;1264;13986;-60
2022/09/20 09:20:48;;;;;;;;;5.00;5.00;;;;;21.75;50.11;100746.91;110458;1264;12846;-61
2022/09/20 09:23:15;;;;;;;;;3.00;3.00;;;;;21.72;49.94;100744.82;110443;1262;13221;-60
2022/09/20 09:25:42;;;;;;;;;5.00;3.00;;;;;21.54;49.99;100748.52;110450;1263;13144;-62
2022/09/20 09:28:10;;;;;;;;;3.00;3.00;;;;;21.31;49.94;100759.10;110447;1262;12689;-59
2022/09/20 09:30:37;;;;;;;;;2.00;2.00;;;;;21.27;49.90;100761.56;110420;1263;12807;-61
2022/09/20 09:33:04;;;;;;;;;2.67;2.00;;;;;21.24;49.70;100763.50;110429;1264;12685;-61
2022/09/20 09:35:31;;;;;;;;;3.00;2.00;;;;;21.22;49.53;100762.08;110375;1264;12975;-59
2022/09/20 09:37:59;;;;;;;;;3.00;3.00;;;;;21.21;49.47;100761.54;110356;1264;14265;-62
2022/09/20 09:40:26;;;;;;;;;3.00;3.00;;;;;21.16;49.44;100762.04;110430;1264;13640;-60
2022/09/20 09:42:54;;;;;;;;;2.67;2.67;;;;;21.10;49.46;100765.48;110444;1264;13956;-61
2022/09/20 09:45:21;;;;;;;;;2.33;2.33;;;;;21.02;49.42;100761.84;110473;1265;13350;-60
2022/09/20 09:47:48;;;;;;;;;2.00;2.00;;;;;21.05;49.23;100762.37;110471;1264;13367;-60
2022/09/20 09:50:16;;;;;;;;;2.67;2.00;;;;;21.15;49.13;100760.79;110436;1264;13760;-61
2022/09/20 09:52:43;;;;;;;;;2.00;2.00;;;;;21.15;48.80;100758.23;110464;1264;13031;-61
2022/09/20 09:55:10;;;;;;;;;2.00;2.00;;;;;21.16;48.39;100755.54;110426;1264;13125;-59
2022/09/20 09:57:38;;;;;;;;;2.00;2.00;;;;;21.14;48.00;100758.93;110479;1264;13739;-62
2022/09/20 10:00:09;;;;;;;;;1.33;1.33;;;;;21.16;47.73;100758.27;110460;1262;13097;-59
2022/09/20 10:02:36;;;;;;;;;2.00;2.00;;;;;21.26;47.61;100754.20;110500;1264;12945;-63
2022/09/20 10:05:04;;;;;;;;;2.00;2.00;;;;;21.27;47.36;100750.67;110382;1262;12880;-62
2022/09/20 10:07:31;;;;;;;;;1.00;1.00;;;;;21.28;47.14;100754.83;110453;1264;13165;-62
2022/09/20 10:09:58;;;;;;;;;1.00;1.00;;;;;21.16;47.02;100758.68;110450;1264;13380;-59
2022/09/20 10:12:25;;;;;;;;;2.00;2.00;;;;;21.08;46.71;100760.41;110448;1264;13238;-60
2022/09/20 10:14:53;;;;;;;;;2.00;2.00;;;;;21.08;46.37;100756.77;110503;1264;13051;-60
2022/09/20 10:17:20;;;;;;;;;3.00;3.00;;;;;21.07;46.16;100752.55;110453;1265;13360;-62
2022/09/20 10:19:47;;;;;;;;;2.00;2.00;;;;;21.12;45.91;100754.43;110444;1264;13916;-61
2022/09/20 10:22:16;;;;;;;;;6.00;4.33;;;;;21.20;45.94;100754.05;110420;1264;14022;-58
2022/09/20 10:24:44;;;;;;;;;5.00;3.33;;;;;21.24;45.84;100754.99;110436;1264;13445;-61
2022/09/20 10:27:11;;;;;;;;;5.00;3.00;;;;;21.28;45.61;100749.08;110476;1264;13907;-61
2022/09/20 10:29:39;;;;;;;;;3.00;3.00;;;;;21.36;45.59;100749.65;110475;1264;12654;-59
2022/09/20 10:32:06;;;;;;;;;2.00;2.00;;;;;21.38;45.43;100762.46;110347;1264;14025;-60
2022/09/20 10:34:34;;;;;;;;;2.00;2.00;;;;;21.21;45.49;100764.44;110395;1265;13276;-62
2022/09/20 10:37:01;;;;;;;;;2.00;2.00;;;;;21.00;45.85;100766.33;110381;1264;12871;-62
2022/09/20 10:39:29;;;;;;;;;2.00;2.00;;;;;20.95;45.92;100767.13;110352;1264;13691;-61
2022/09/20 10:44:41;;;;;;;;;2.00;2.00;;;;;20.94;46.06;100771.23;110449;1264;12999;-60
2022/09/20 10:47:08;;;;;;;;;2.00;2.00;;;;;20.98;46.25;100768.20;110466;1264;13224;-61
2022/09/20 10:49:36;;;;;;;;;2.00;2.00;;;;;21.05;46.36;100767.19;110442;1265;13853;-61
2022/09/20 10:52:04;;;;;;;;;3.33;2.00;;;;;21.00;46.43;100765.20;110456;1264;12810;-63
2022/09/20 10:54:31;;;;;;;;;2.00;2.00;;;;;20.96;46.44;100768.92;110476;1263;14781;-60
2022/09/20 10:56:59;;;;;;;;;4.00;4.00;;;;;20.96;46.03;100770.80;110471;1264;13388;-61
2022/09/20 10:59:27;;;;;;;;;2.00;2.00;;;;;20.84;45.19;100771.26;110390;1264;13542;-61
2022/09/20 11:01:54;;;;;;;;;4.00;2.00;;;;;20.80;44.77;100767.88;110460;1262;13175;-60
2022/09/20 11:04:22;;;;;;;;;2.00;2.00;;;;;20.91;44.48;100767.92;110334;1263;13014;-60
2022/09/20 11:06:49;;;;;;;;;2.00;2.00;;;;;20.95;44.40;100767.02;110409;1264;13080;-62
2022/09/20 11:09:16;;;;;;;;;2.67;2.67;;;;;21.03;44.55;100769.23;110462;1264;13496;-61
2022/09/20 11:11:43;;;;;;;;;2.00;2.00;;;;;20.98;45.04;100777.98;110479;1264;13751;-60
2022/09/20 11:14:11;;;;;;;;;2.00;2.00;;;;;20.94;45.45;100780.20;110419;1264;12996;-62
2022/09/20 11:16:38;;;;;;;;;1.00;1.00;;;;;20.92;45.47;100779.17;110430;1265;13407;-60
2022/09/20 11:19:06;;;;;;;;;2.00;2.00;;;;;21.04;45.62;100776.52;110425;1264;12265;-63
2022/09/20 11:21:33;;;;;;;;;4.33;4.00;;;;;21.13;45.77;100776.77;110442;1264;14828;-61
2022/09/20 11:24:00;;;;;;;;;2.00;2.00;;;;;21.15;45.86;100776.39;110436;1264;13042;-60
2022/09/20 11:26:27;;;;;;;;;2.00;2.00;;;;;21.19;45.70;100772.69;110468;1264;13024;-61
2022/09/20 11:28:55;;;;;;;;;1.00;1.00;;;;;21.20;45.46;100773.60;110323;1264;13087;-60
2022/09/20 11:31:22;;;;;;;;;2.00;2.00;;;;;21.20;45.48;100772.56;110364;1264;13570;-60